Time;durP1;ratioP1;P1;durP2;ratioP2;P2;SDS_P1;SDS_P2;PMS_P1;PMS_P2;Temp;Humidity;BMP_temperature;BMP_pressure;BME280_temperature;BME280_humidity;BME280_pressure;Samples;Min_cycle;Max_cycle;Signal;HPM_P1;HPM_P2
2024/01/14 00:02:20;;;;;;;59.78;22.77;;;-3.70;99.90;;;;;;5045335;28;20166;-74
2024/01/14 00:04:45;;;;;;;62.00;23.30;;;-3.60;99.90;;;;;;5046849;28;20505;-73
2024/01/14 00:07:11;;;;;;;68.22;23.08;;;-3.60;99.90;;;;;;5047487;28;20057;-74
2024/01/14 00:09:37;;;;;;;66.22;25.27;;;-3.60;99.90;;;;;;5042065;28;20029;-73
2024/01/14 00:12:04;;;;;;;58.90;22.33;;;-3.60;99.90;;;;;;5040364;28;20108;-74
2024/01/14 00:14:29;;;;;;;66.65;23.92;;;-3.60;99.90;;;;;;5036258;28;20510;-73
2024/01/14 00:16:55;;;;;;;61.20;22.48;;;-3.60;99.90;;;;;;5040391;28;20028;-73
2024/01/14 00:19:21;;;;;;;67.50;23.90;;;-3.60;99.90;;;;;;5039428;28;20029;-73
2024/01/14 00:21:46;;;;;;;63.65;24.42;;;-3.60;99.90;;;;;;5036112;28;20046;-73
2024/01/14 00:24:12;;;;;;;61.88;20.90;;;-3.60;99.90;;;;;;5037361;28;20028;-72
2024/01/14 00:26:43;;;;;;;57.80;22.15;;;-3.60;99.90;;;;;;5038314;28;20095;-73
2024/01/14 00:29:10;;;;;;;63.22;23.15;;;-3.60;99.90;;;;;;5037710;28;20017;-73
2024/01/14 00:31:36;;;;;;;56.65;22.27;;;-3.60;99.90;;;;;;5038761;28;20035;-73
2024/01/14 00:34:02;;;;;;;63.55;22.63;;;-3.60;99.90;;;;;;5043820;28;20017;-74
2024/01/14 00:36:27;;;;;;;63.55;24.05;;;-3.60;99.90;;;;;;5038667;28;20052;-73
2024/01/14 00:38:53;;;;;;;65.05;24.08;;;-3.60;99.90;;;;;;5046947;28;20037;-74
2024/01/14 00:41:26;;;;;;;65.38;23.63;;;-3.60;99.90;;;;;;5052959;28;20072;-73
2024/01/14 00:43:51;;;;;;;71.80;25.15;;;-3.50;99.90;;;;;;5048087;28;20025;-73
2024/01/14 00:46:17;;;;;;;61.95;22.50;;;-3.60;99.90;;;;;;5042227;28;20025;-73
2024/01/14 00:48:43;;;;;;;59.95;22.23;;;-3.60;99.90;;;;;;5046717;28;20446;-75
2024/01/14 00:51:10;;;;;;;56.75;22.48;;;-3.60;99.90;;;;;;5043643;28;20026;-74
2024/01/14 00:53:35;;;;;;;64.13;23.65;;;-3.70;99.90;;;;;;5048668;28;20490;-73
2024/01/14 00:56:01;;;;;;;60.53;23.38;;;-3.70;99.90;;;;;;5052251;28;20028;-73
2024/01/14 00:58:28;;;;;;;67.88;23.92;;;-3.70;99.90;;;;;;5032232;28;20035;-73
2024/01/14 01:00:54;;;;;;;65.75;24.77;;;-3.70;99.90;;;;;;5049017;28;20025;-73
2024/01/14 01:03:19;;;;;;;63.10;23.42;;;-3.70;99.90;;;;;;5035596;28;20017;-72
2024/01/14 01:05:45;;;;;;;63.40;22.70;;;-3.70;99.90;;;;;;5051683;28;20074;-74
2024/01/14 01:08:11;;;;;;;69.07;24.38;;;-3.70;99.90;;;;;;5044009;28;20068;-73
2024/01/14 01:10:36;;;;;;;60.92;22.75;;;-3.70;99.90;;;;;;5051179;28;20025;-73
2024/01/14 01:13:02;;;;;;;66.43;23.02;;;-3.70;99.90;;;;;;5035801;28;20033;-73
2024/01/14 01:15:28;;;;;;;63.13;23.83;;;-3.70;99.90;;;;;;5045485;28;20021;-72
2024/01/14 01:17:55;;;;;;;64.28;23.80;;;-3.70;99.90;;;;;;5038490;28;20033;-72
2024/01/14 01:20:20;;;;;;;65.70;24.92;;;-3.60;99.90;;;;;;5040523;28;20121;-73
2024/01/14 01:22:46;;;;;;;65.53;24.45;;;-3.60;99.90;;;;;;5049168;28;20497;-73
2024/01/14 01:25:12;;;;;;;67.80;25.02;;;-3.60;99.90;;;;;;5034839;28;20087;-73
2024/01/14 01:27:37;;;;;;;66.70;24.48;;;-3.70;99.90;;;;;;5045349;28;20501;-74
2024/01/14 01:30:04;;;;;;;69.05;26.05;;;-3.60;99.90;;;;;;5046549;28;20381;-74
2024/01/14 01:32:29;;;;;;;66.45;25.38;;;-3.60;99.90;;;;;;5031886;28;20697;-74
2024/01/14 01:34:55;;;;;;;64.38;24.27;;;-3.60;99.90;;;;;;5044157;28;20025;-74
2024/01/14 01:37:21;;;;;;;60.28;24.55;;;-3.50;99.90;;;;;;5023752;28;20029;-75
2024/01/14 01:39:48;;;;;;;65.32;24.90;;;-3.50;99.90;;;;;;5040372;28;20045;-74
2024/01/14 01:42:13;;;;;;;62.75;23.52;;;-3.60;99.90;;;;;;5036300;28;20033;-73
2024/01/14 01:44:40;;;;;;;67.80;25.67;;;-3.60;99.90;;;;;;5048743;28;20077;-72
2024/01/14 01:47:07;;;;;;;69.45;26.02;;;-3.60;99.90;;;;;;5050657;28;20256;-73
2024/01/14 01:49:34;;;;;;;68.90;25.73;;;-3.60;99.90;;;;;;5047764;28;20021;-75
2024/01/14 01:52:02;;;;;;;64.97;24.75;;;-3.50;99.90;;;;;;5050936;28;20025;-73
2024/01/14 01:54:29;;;;;;;73.57;26.23;;;-3.50;99.90;;;;;;5047880;28;20082;-73
2024/01/14 01:56:57;;;;;;;67.97;25.60;;;-3.50;99.90;;;;;;5038220;28;20121;-74
2024/01/14 01:59:24;;;;;;;62.88;23.17;;;-3.40;99.90;;;;;;5034312;28;20031;-73
2024/01/14 02:01:51;;;;;;;68.15;25.85;;;-3.50;99.90;;;;;;5040213;28;20211;-74
2024/01/14 02:04:18;;;;;;;62.42;25.50;;;-3.50;99.90;;;;;;5042160;28;20061;-73
2024/01/14 02:06:44;;;;;;;62.13;23.15;;;-3.50;99.90;;;;;;5033570;28;20025;-74
2024/01/14 02:09:10;;;;;;;61.78;24.60;;;-3.50;99.90;;;;;;5048361;28;20497;-71
2024/01/14 02:11:39;;;;;;;62.22;23.98;;;-3.50;99.90;;;;;;5048659;28;20044;-73
2024/01/14 02:14:05;;;;;;;70.13;24.20;;;-3.50;99.90;;;;;;5049369;28;20028;-74
2024/01/14 02:16:31;;;;;;;68.45;26.05;;;-3.50;99.90;;;;;;5049057;28;20382;-73
2024/01/14 02:18:56;;;;;;;65.18;24.15;;;-3.50;99.90;;;;;;5047307;28;20029;-72
2024/01/14 02:21:51;;;;;;;71.65;26.35;;;-3.40;99.90;;;;;;5044098;28;20047;-72
2024/01/14 02:24:26;;;;;;;72.45;25.00;;;-3.30;99.90;;;;;;5013981;28;20042;-72
2024/01/14 02:26:53;;;;;;;70.03;24.92;;;-3.30;99.90;;;;;;5041100;28;20068;-72
2024/01/14 02:29:20;;;;;;;74.13;26.33;;;-3.30;99.90;;;;;;5042592;28;20028;-72
2024/01/14 02:31:46;;;;;;;73.88;26.98;;;-3.30;99.90;;;;;;5049795;28;20058;-72
2024/01/14 02:34:12;;;;;;;73.72;25.98;;;-3.20;99.90;;;;;;5047621;28;20021;-72
2024/01/14 02:36:38;;;;;;;82.65;28.35;;;-3.20;99.90;;;;;;5049656;28;20551;-72
2024/01/14 02:39:06;;;;;;;74.15;27.10;;;-3.30;99.90;;;;;;5047396;28;20025;-72
2024/01/14 02:41:33;;;;;;;70.63;26.15;;;-3.30;99.90;;;;;;5046565;28;20032;-72
2024/01/14 02:43:58;;;;;;;71.72;26.20;;;-3.30;99.90;;;;;;5042267;28;20022;-71
2024/01/14 02:46:24;;;;;;;72.65;26.10;;;-3.30;99.90;;;;;;5048233;28;20163;-72
2024/01/14 02:48:50;;;;;;;72.38;24.55;;;-3.30;99.90;;;;;;5034335;28;20045;-73
2024/01/14 02:51:17;;;;;;;78.32;28.50;;;-3.40;99.90;;;;;;5035060;28;20021;-72
2024/01/14 02:53:43;;;;;;;82.15;28.90;;;-3.40;99.90;;;;;;5034518;28;20021;-72
2024/01/14 02:56:12;;;;;;;80.30;29.85;;;-3.40;99.90;;;;;;5042676;28;20076;-72
2024/01/14 02:58:38;;;;;;;72.07;26.53;;;-3.40;99.90;;;;;;5043695;28;20021;-72
2024/01/14 03:01:06;;;;;;;70.40;26.05;;;-3.40;99.90;;;;;;5042286;28;20029;-71
2024/01/14 03:03:33;;;;;;;81.30;25.90;;;-3.40;99.90;;;;;;5038631;28;20033;-72
2024/01/14 03:05:59;;;;;;;74.90;26.42;;;-3.50;99.90;;;;;;5039291;28;20492;-72
2024/01/14 03:08:24;;;;;;;77.68;26.77;;;-3.40;99.90;;;;;;5046143;28;20126;-71
2024/01/14 03:10:50;;;;;;;73.85;26.48;;;-3.40;99.90;;;;;;5036895;28;20025;-72
2024/01/14 03:13:16;;;;;;;72.32;25.05;;;-3.40;99.90;;;;;;5028510;28;20393;-72
2024/01/14 03:15:45;;;;;;;71.43;26.17;;;-3.40;99.90;;;;;;5036623;28;20029;-72
2024/01/14 03:18:12;;;;;;;74.82;27.25;;;-3.50;99.90;;;;;;5039549;28;20048;-72
2024/01/14 03:20:37;;;;;;;72.22;26.95;;;-3.50;99.90;;;;;;5042109;28;20060;-72
2024/01/14 03:23:03;;;;;;;73.93;25.60;;;-3.50;99.90;;;;;;5047031;28;20539;-72
2024/01/14 03:25:29;;;;;;;71.82;24.15;;;-3.40;99.90;;;;;;5048029;28;20265;-71
2024/01/14 03:27:55;;;;;;;72.03;24.58;;;-3.50;99.90;;;;;;5030952;28;20029;-73
2024/01/14 03:30:21;;;;;;;67.68;25.48;;;-3.50;99.90;;;;;;5030607;28;20037;-72
2024/01/14 03:32:46;;;;;;;71.22;26.70;;;-3.50;99.90;;;;;;5046659;28;20035;-72
2024/01/14 03:35:12;;;;;;;72.95;25.60;;;-3.60;99.90;;;;;;5041780;28;20435;-72
2024/01/14 03:37:38;;;;;;;76.75;26.85;;;-3.60;99.90;;;;;;5033467;28;20026;-72
2024/01/14 03:40:05;;;;;;;64.43;24.60;;;-3.70;99.90;;;;;;5048737;28;20040;-72
2024/01/14 03:42:31;;;;;;;82.63;27.10;;;-3.70;99.90;;;;;;5044627;28;20224;-72
2024/01/14 03:44:57;;;;;;;68.88;24.58;;;-3.70;99.90;;;;;;5048569;28;20040;-72
2024/01/14 03:47:22;;;;;;;74.43;27.02;;;-3.70;99.90;;;;;;5045291;28;20017;-72
2024/01/14 03:49:48;;;;;;;70.68;24.35;;;-3.60;99.90;;;;;;5048634;28;20029;-72
2024/01/14 03:52:14;;;;;;;68.28;23.77;;;-3.60;99.90;;;;;;5044876;28;20048;-72
2024/01/14 03:54:39;;;;;;;71.65;26.80;;;-3.60;99.90;;;;;;5036579;28;20095;-72
2024/01/14 03:57:05;;;;;;;70.78;26.23;;;-3.60;99.90;;;;;;5042464;28;20032;-72
2024/01/14 03:59:31;;;;;;;75.18;26.15;;;-3.60;99.90;;;;;;5040505;28;20422;-72
2024/01/14 04:01:56;;;;;;;74.28;25.45;;;-3.70;99.90;;;;;;5048919;28;20031;-71
2024/01/14 04:04:22;;;;;;;75.10;26.20;;;-3.70;99.90;;;;;;5046279;28;20324;-72
2024/01/14 04:06:48;;;;;;;72.90;25.63;;;-3.70;99.90;;;;;;5043958;28;20036;-73
2024/01/14 04:09:13;;;;;;;77.28;25.88;;;-3.60;99.90;;;;;;5044066;28;20104;-71
2024/01/14 04:11:41;;;;;;;78.97;27.58;;;-3.60;99.90;;;;;;5043611;28;20014;-71
2024/01/14 04:14:07;;;;;;;82.07;28.80;;;-3.60;99.90;;;;;;5045552;28;20025;-73
2024/01/14 04:16:40;;;;;;;81.75;26.20;;;-3.70;99.90;;;;;;5041985;28;20035;-73
2024/01/14 04:19:06;;;;;;;78.95;27.10;;;-3.70;99.90;;;;;;5036688;28;20034;-73
2024/01/14 04:21:32;;;;;;;83.32;27.52;;;-3.70;99.90;;;;;;5050615;28;20262;-73
2024/01/14 04:23:59;;;;;;;85.28;27.20;;;-3.70;99.90;;;;;;5051201;28;20036;-73
2024/01/14 04:26:25;;;;;;;77.60;26.58;;;-3.70;99.90;;;;;;5039680;28;20025;-73
2024/01/14 04:28:51;;;;;;;82.85;28.10;;;-3.70;99.90;;;;;;5050674;28;20490;-73
2024/01/14 04:31:18;;;;;;;80.10;26.48;;;-3.80;99.90;;;;;;5045477;28;20524;-73
2024/01/14 04:33:44;;;;;;;75.35;26.55;;;-3.70;99.90;;;;;;5046048;28;20445;-72
2024/01/14 04:36:11;;;;;;;75.43;25.75;;;-3.80;99.90;;;;;;5045789;28;20059;-73
2024/01/14 04:38:37;;;;;;;83.00;26.48;;;-3.90;99.90;;;;;;5037835;28;20398;-73
2024/01/14 04:41:03;;;;;;;80.47;25.33;;;-4.00;99.90;;;;;;5051554;28;20108;-73
2024/01/14 04:43:28;;;;;;;74.85;26.00;;;-4.00;99.90;;;;;;5042534;28;20017;-73
2024/01/14 04:45:54;;;;;;;85.07;28.33;;;-4.00;99.90;;;;;;5046158;28;20113;-73
2024/01/14 04:48:20;;;;;;;72.68;24.70;;;-4.00;99.90;;;;;;5042213;28;20509;-74
2024/01/14 04:50:46;;;;;;;69.53;24.80;;;-3.90;99.90;;;;;;5042598;28;20025;-71
2024/01/14 04:53:11;;;;;;;73.85;25.33;;;-3.90;99.90;;;;;;5048359;28;20079;-71
2024/01/14 04:55:37;;;;;;;74.97;25.10;;;-3.90;99.90;;;;;;5050887;28;20383;-72
2024/01/14 04:58:03;;;;;;;68.13;23.48;;;-4.00;99.90;;;;;;5050534;28;20051;-73
2024/01/14 05:00:29;;;;;;;69.53;21.08;;;-4.00;99.90;;;;;;5038842;28;20036;-72
2024/01/14 05:02:55;;;;;;;73.55;23.90;;;-3.90;99.90;;;;;;5051684;28;20025;-72
2024/01/14 05:05:20;;;;;;;71.35;24.38;;;-4.00;99.90;;;;;;5036686;28;20033;-73
2024/01/14 05:07:46;;;;;;;71.45;23.85;;;-4.10;99.90;;;;;;5046261;28;20075;-73
2024/01/14 05:10:12;;;;;;;69.65;23.00;;;-4.10;99.90;;;;;;5041132;28;20021;-72
2024/01/14 05:12:37;;;;;;;70.05;22.35;;;-4.10;99.90;;;;;;5044293;28;20025;-73
2024/01/14 05:15:04;;;;;;;71.13;22.95;;;-4.10;99.90;;;;;;5049473;28;20122;-73
2024/01/14 05:17:29;;;;;;;70.72;23.65;;;-4.20;99.90;;;;;;5044571;28;20354;-72
2024/01/14 05:19:55;;;;;;;76.10;24.65;;;-4.20;99.90;;;;;;5051243;28;20021;-73
2024/01/14 05:22:21;;;;;;;75.25;27.02;;;-4.20;99.90;;;;;;5047304;28;20056;-73
2024/01/14 05:24:50;;;;;;;76.32;25.20;;;-4.10;99.90;;;;;;5051049;28;20037;-73
2024/01/14 05:27:16;;;;;;;69.35;22.42;;;-4.10;99.90;;;;;;5042246;28;20098;-73
2024/01/14 05:29:42;;;;;;;68.90;22.63;;;-4.00;99.90;;;;;;5050637;28;20033;-73
2024/01/14 05:32:11;;;;;;;69.30;22.65;;;-4.10;99.90;;;;;;5051083;28;20095;-72
2024/01/14 05:34:37;;;;;;;71.70;23.58;;;-4.10;99.90;;;;;;5044834;28;20021;-73
2024/01/14 05:37:02;;;;;;;66.00;22.42;;;-4.20;99.90;;;;;;5051233;28;20500;-73
2024/01/14 05:39:28;;;;;;;69.55;23.15;;;-4.30;99.90;;;;;;5048658;28;20029;-73
2024/01/14 05:41:54;;;;;;;66.78;22.08;;;-4.20;99.90;;;;;;5050938;28;20037;-73
2024/01/14 05:44:19;;;;;;;71.30;23.02;;;-4.30;99.90;;;;;;5041710;28;20075;-73
2024/01/14 05:46:45;;;;;;;70.82;24.17;;;-4.40;99.90;;;;;;5045534;28;20032;-73
2024/01/14 05:49:11;;;;;;;66.70;23.02;;;-4.40;99.90;;;;;;5048427;28;20543;-73
2024/01/14 05:51:37;;;;;;;67.85;23.30;;;-4.40;99.90;;;;;;5048740;28;20021;-73
2024/01/14 05:54:03;;;;;;;70.90;23.05;;;-4.40;99.90;;;;;;5049037;28;20017;-73
2024/01/14 05:56:30;;;;;;;63.33;21.25;;;-4.40;99.90;;;;;;5036244;28;20059;-73
2024/01/14 05:58:56;;;;;;;71.15;23.15;;;-4.50;99.90;;;;;;5044253;28;20250;-72
2024/01/14 06:01:22;;;;;;;81.93;27.27;;;-4.40;99.90;;;;;;5040399;28;20025;-73
2024/01/14 06:03:49;;;;;;;72.97;24.33;;;-4.50;99.90;;;;;;5031262;28;20112;-72
2024/01/14 06:06:15;;;;;;;69.68;23.90;;;-4.40;99.90;;;;;;5041076;28;20024;-72
2024/01/14 06:08:41;;;;;;;75.55;23.63;;;-4.50;99.90;;;;;;5044471;28;20021;-72
2024/01/14 06:11:07;;;;;;;73.50;23.90;;;-4.50;99.90;;;;;;5050217;28;20242;-72
2024/01/14 06:13:33;;;;;;;68.03;23.92;;;-4.50;99.90;;;;;;5049041;28;20021;-73
2024/01/14 06:15:59;;;;;;;67.65;23.67;;;-4.40;99.90;;;;;;5050419;28;20425;-73
2024/01/14 06:18:28;;;;;;;64.80;21.95;;;-4.50;99.90;;;;;;5048555;28;20025;-73
2024/01/14 06:20:55;;;;;;;62.10;22.80;;;-4.40;99.90;;;;;;5050492;28;20567;-73
2024/01/14 06:23:21;;;;;;;72.10;24.23;;;-4.50;99.90;;;;;;5048676;28;20085;-73
2024/01/14 06:25:47;;;;;;;67.72;23.77;;;-4.40;99.90;;;;;;5045275;28;20111;-72
2024/01/14 06:28:13;;;;;;;70.43;24.15;;;-4.50;99.90;;;;;;5047227;28;20071;-72
2024/01/14 06:30:38;;;;;;;69.15;23.27;;;-4.50;99.90;;;;;;5048627;28;20029;-73
2024/01/14 06:33:04;;;;;;;65.70;21.55;;;-4.50;99.90;;;;;;5041176;28;20036;-72
2024/01/14 06:35:30;;;;;;;68.50;23.15;;;-4.50;99.90;;;;;;5040243;28;20265;-73
2024/01/14 06:37:55;;;;;;;66.30;22.90;;;-4.50;99.90;;;;;;5049673;28;20029;-73
2024/01/14 06:40:21;;;;;;;72.10;23.73;;;-4.50;99.90;;;;;;5045747;28;20409;-73
2024/01/14 06:42:47;;;;;;;64.00;20.63;;;-4.50;99.90;;;;;;5039140;28;20034;-73
2024/01/14 06:45:13;;;;;;;58.67;22.45;;;-4.50;99.90;;;;;;5034533;28;20021;-73
2024/01/14 06:47:40;;;;;;;71.63;24.55;;;-4.50;99.90;;;;;;5040607;28;20029;-74
2024/01/14 06:50:06;;;;;;;58.88;20.20;;;-4.40;99.90;;;;;;5047685;28;20027;-73
2024/01/14 06:52:32;;;;;;;59.05;20.95;;;-4.40;99.90;;;;;;5045267;28;20076;-73
2024/01/14 06:54:57;;;;;;;60.42;21.63;;;-4.40;99.90;;;;;;5023824;28;20029;-74
2024/01/14 06:57:23;;;;;;;71.57;22.60;;;-4.40;99.90;;;;;;5039739;28;20082;-74
2024/01/14 06:59:52;;;;;;;73.80;23.55;;;-4.50;99.90;;;;;;5038185;28;20033;-74
2024/01/14 07:02:17;;;;;;;71.05;23.20;;;-4.40;99.90;;;;;;5038819;28;20105;-73
2024/01/14 07:04:43;;;;;;;67.65;22.00;;;-4.40;99.90;;;;;;5043535;28;20115;-74
2024/01/14 07:07:09;;;;;;;68.45;23.40;;;-4.40;99.90;;;;;;5045519;28;20040;-74
2024/01/14 07:09:34;;;;;;;68.88;23.98;;;-4.40;99.90;;;;;;5030700;28;20068;-74
2024/01/14 07:12:03;;;;;;;74.70;24.40;;;-4.40;99.90;;;;;;5040261;28;20184;-73
2024/01/14 07:14:29;;;;;;;63.30;24.10;;;-4.50;99.90;;;;;;5049050;28;20021;-74
2024/01/14 07:16:54;;;;;;;70.15;23.15;;;-4.50;99.90;;;;;;5043220;28;20086;-73
2024/01/14 07:19:20;;;;;;;74.95;24.38;;;-4.50;99.90;;;;;;5016633;28;20175;-73
2024/01/14 07:21:47;;;;;;;75.40;25.50;;;-4.50;99.90;;;;;;5037866;28;20082;-73
2024/01/14 07:24:13;;;;;;;72.53;23.55;;;-4.50;99.90;;;;;;5037114;28;20028;-73
2024/01/14 07:26:39;;;;;;;74.05;26.25;;;-4.50;99.90;;;;;;5057565;28;20501;-73
2024/01/14 07:29:04;;;;;;;71.55;25.90;;;-4.50;99.90;;;;;;5045140;28;20065;-73
2024/01/14 07:31:31;;;;;;;81.88;26.60;;;-4.60;99.90;;;;;;5048503;28;20290;-74
2024/01/14 07:33:57;;;;;;;84.10;26.20;;;-4.60;99.90;;;;;;5046075;28;20017;-73
2024/01/14 07:36:23;;;;;;;75.47;25.92;;;-4.50;99.90;;;;;;5062847;28;20031;-73
2024/01/14 07:38:50;;;;;;;69.60;25.08;;;-4.50;99.90;;;;;;5047745;28;20016;-73
2024/01/14 07:41:16;;;;;;;75.78;25.30;;;-4.50;99.90;;;;;;5046075;28;20035;-74
2024/01/14 07:43:43;;;;;;;81.15;26.08;;;-4.50;99.90;;;;;;5052434;28;20021;-73
2024/01/14 07:46:09;;;;;;;78.03;26.52;;;-4.50;99.90;;;;;;5039176;28;20496;-73
2024/01/14 07:48:35;;;;;;;75.25;25.23;;;-4.50;99.90;;;;;;5040399;28;20037;-73
2024/01/14 07:51:02;;;;;;;70.13;23.70;;;-4.40;99.90;;;;;;5035300;28;20033;-73
2024/01/14 07:53:28;;;;;;;72.38;24.65;;;-4.50;99.90;;;;;;5035907;28;20049;-73
2024/01/14 07:55:53;;;;;;;68.43;23.60;;;-4.50;99.90;;;;;;5042225;28;20559;-73
2024/01/14 07:58:19;;;;;;;65.85;25.65;;;-4.50;99.90;;;;;;5046620;28;20036;-73
2024/01/14 08:00:45;;;;;;;72.10;25.67;;;-4.40;99.90;;;;;;5042002;28;20029;-74
2024/01/14 08:03:11;;;;;;;73.00;24.67;;;-4.40;99.90;;;;;;5048519;28;20079;-73
2024/01/14 08:05:38;;;;;;;82.60;26.77;;;-4.40;99.90;;;;;;5040934;28;20489;-73
2024/01/14 08:08:06;;;;;;;75.90;25.45;;;-4.40;99.90;;;;;;5034959;28;20113;-73
2024/01/14 08:10:33;;;;;;;78.65;28.50;;;-4.30;99.90;;;;;;5042774;28;20416;-73
2024/01/14 08:12:58;;;;;;;83.20;27.65;;;-4.30;99.90;;;;;;5037786;28;20544;-73
2024/01/14 08:15:24;;;;;;;74.38;24.85;;;-4.20;99.90;;;;;;5041938;28;20021;-74
2024/01/14 08:17:50;;;;;;;75.25;25.30;;;-4.20;99.90;;;;;;5034101;28;20025;-73
2024/01/14 08:20:16;;;;;;;70.82;24.08;;;-4.20;99.90;;;;;;5040883;28;20021;-74
2024/01/14 08:22:41;;;;;;;82.97;25.67;;;-4.10;99.90;;;;;;5033943;28;20146;-73
2024/01/14 08:25:08;;;;;;;77.30;25.85;;;-4.10;99.90;;;;;;5042049;28;20494;-73
2024/01/14 08:27:34;;;;;;;79.38;25.23;;;-4.10;99.90;;;;;;5041721;28;20321;-73
2024/01/14 08:30:00;;;;;;;69.55;26.35;;;-4.00;99.90;;;;;;5047800;28;20029;-73
2024/01/14 08:32:27;;;;;;;75.28;25.88;;;-3.90;99.90;;;;;;5033263;28;20029;-73
2024/01/14 08:34:52;;;;;;;72.72;26.38;;;-3.90;99.90;;;;;;5049850;28;20021;-71
2024/01/14 08:37:18;;;;;;;80.80;27.58;;;-3.90;99.90;;;;;;5044203;28;20124;-72
2024/01/14 08:39:44;;;;;;;77.40;27.50;;;-3.80;99.90;;;;;;5038929;28;20043;-71
2024/01/14 08:42:09;;;;;;;71.93;26.77;;;-3.70;99.90;;;;;;5030074;28;20087;-70
2024/01/14 08:44:35;;;;;;;65.25;26.42;;;-3.70;99.90;;;;;;5035641;28;20028;-70
2024/01/14 08:47:01;;;;;;;63.97;25.33;;;-3.60;99.90;;;;;;5041698;28;20445;-71
2024/01/14 08:49:29;;;;;;;61.88;26.30;;;-3.60;99.90;;;;;;5041434;28;20405;-71
2024/01/14 08:51:56;;;;;;;66.70;25.80;;;-3.60;99.90;;;;;;5035086;28;20467;-71
2024/01/14 08:54:22;;;;;;;68.72;25.73;;;-3.60;99.90;;;;;;5040139;28;20044;-71
2024/01/14 08:56:48;;;;;;;63.90;25.27;;;-3.60;99.90;;;;;;5040625;28;20052;-71
2024/01/14 08:59:14;;;;;;;62.88;24.05;;;-3.50;99.90;;;;;;5044968;28;20033;-70
2024/01/14 09:01:39;;;;;;;63.08;25.80;;;-3.50;99.90;;;;;;5050944;28;20039;-72
2024/01/14 09:04:05;;;;;;;67.85;24.65;;;-3.50;99.90;;;;;;5045043;28;20083;-72
2024/01/14 09:06:35;;;;;;;63.38;24.75;;;-3.50;99.90;;;;;;5059316;28;20222;-72
2024/01/14 09:09:00;;;;;;;64.97;25.23;;;-3.50;99.90;;;;;;5046033;28;20036;-71
2024/01/14 09:11:26;;;;;;;64.57;26.02;;;-3.50;99.90;;;;;;5055689;28;20029;-72
2024/01/14 09:13:53;;;;;;;61.20;25.30;;;-3.40;99.90;;;;;;5029534;28;20525;-71
2024/01/14 09:16:18;;;;;;;58.30;24.27;;;-3.40;99.90;;;;;;5032037;28;20030;-73
2024/01/14 09:18:44;;;;;;;80.72;26.35;;;-3.40;99.90;;;;;;5046198;28;20047;-72
2024/01/14 09:21:10;;;;;;;66.03;24.42;;;-3.30;99.90;;;;;;5048454;28;20049;-73
2024/01/14 09:23:37;;;;;;;68.05;25.70;;;-3.40;99.90;;;;;;5054380;28;20043;-71
2024/01/14 09:26:03;;;;;;;68.47;25.75;;;-3.40;99.90;;;;;;5050087;28;20085;-72
2024/01/14 09:28:28;;;;;;;70.15;25.58;;;-3.30;99.90;;;;;;5056986;28;20037;-73
2024/01/14 09:30:54;;;;;;;63.53;25.25;;;-3.20;99.90;;;;;;5057993;28;20498;-72
2024/01/14 09:33:20;;;;;;;64.80;26.15;;;-3.20;99.90;;;;;;5039273;28;20025;-72
2024/01/14 09:35:45;;;;;;;69.35;27.15;;;-3.10;99.90;;;;;;5043478;28;20346;-72
2024/01/14 09:38:11;;;;;;;68.18;26.25;;;-3.00;99.90;;;;;;5055549;28;20028;-72
2024/01/14 09:40:37;;;;;;;66.60;25.58;;;-3.00;99.90;;;;;;5051621;28;20338;-73
2024/01/14 09:43:05;;;;;;;67.13;25.63;;;-3.00;99.90;;;;;;5047160;28;20025;-72
2024/01/14 09:45:35;;;;;;;73.50;27.33;;;-3.00;99.90;;;;;;5046266;28;20302;-71
2024/01/14 09:48:02;;;;;;;69.97;28.10;;;-3.00;99.90;;;;;;5043046;28;20043;-72
2024/01/14 09:50:31;;;;;;;73.28;28.50;;;-3.00;99.90;;;;;;5042773;28;20025;-72
2024/01/14 09:52:58;;;;;;;64.85;26.13;;;-3.00;99.90;;;;;;5051572;28;20504;-71
2024/01/14 09:55:27;;;;;;;66.32;25.63;;;-2.90;99.90;;;;;;5036169;28;20068;-72
2024/01/14 09:57:54;;;;;;;63.35;25.55;;;-2.90;99.90;;;;;;5038168;28;20032;-73
2024/01/14 10:00:22;;;;;;;65.22;25.17;;;-2.90;99.90;;;;;;5043218;28;20057;-72
2024/01/14 10:02:48;;;;;;;68.03;26.35;;;-2.90;99.90;;;;;;5057294;28;20046;-73
2024/01/14 10:05:17;;;;;;;61.03;25.15;;;-2.90;99.90;;;;;;5045465;28;20494;-73
2024/01/14 10:07:46;;;;;;;61.95;25.08;;;-2.80;99.90;;;;;;5048326;28;20079;-73
2024/01/14 10:10:13;;;;;;;61.08;24.13;;;-2.70;99.90;;;;;;5044293;28;20033;-73
2024/01/14 10:12:39;;;;;;;59.45;23.05;;;-2.70;99.90;;;;;;5048091;28;20098;-74
2024/01/14 10:15:05;;;;;;;62.55;24.27;;;-2.60;99.90;;;;;;5048730;28;20029;-73
2024/01/14 10:17:31;;;;;;;61.85;24.65;;;-2.50;99.90;;;;;;5031270;28;20799;-73
2024/01/14 10:19:58;;;;;;;62.95;24.15;;;-2.50;99.90;;;;;;5048061;28;20097;-73
2024/01/14 10:22:27;;;;;;;60.63;26.05;;;-2.40;99.90;;;;;;5052210;28;20399;-73
2024/01/14 10:24:53;;;;;;;65.23;25.67;;;-2.30;99.90;;;;;;5051693;28;20125;-72
2024/01/14 10:27:23;;;;;;;66.03;24.52;;;-2.30;99.90;;;;;;5042972;28;20136;-74
2024/01/14 10:29:51;;;;;;;62.53;24.42;;;-2.30;99.90;;;;;;5041956;28;20385;-74
2024/01/14 10:32:18;;;;;;;63.35;25.05;;;-2.20;99.90;;;;;;5032074;28;20082;-73
2024/01/14 10:34:45;;;;;;;60.00;24.05;;;-2.20;99.90;;;;;;5039297;28;20025;-73
2024/01/14 10:37:12;;;;;;;64.75;24.80;;;-2.10;99.90;;;;;;5047016;28;20093;-72
2024/01/14 10:39:40;;;;;;;62.15;24.63;;;-2.10;99.90;;;;;;5037241;28;20017;-74
2024/01/14 10:42:06;;;;;;;61.72;24.63;;;-2.00;99.90;;;;;;5043608;28;20017;-76
2024/01/14 10:44:32;;;;;;;65.20;25.13;;;-1.90;99.90;;;;;;5053363;28;20241;-73
2024/01/14 10:47:02;;;;;;;55.67;24.35;;;-1.80;99.90;;;;;;5038869;28;20029;-74
2024/01/14 10:49:29;;;;;;;61.83;25.35;;;-1.60;99.90;;;;;;5046927;28;20375;-73
2024/01/14 10:52:16;;;;;;;60.47;24.48;;;-1.40;99.90;;;;;;5046502;28;20436;-74
2024/01/14 10:54:52;;;;;;;59.72;23.33;;;-1.20;99.90;;;;;;5040098;28;20025;-74
2024/01/14 10:57:26;;;;;;;59.88;25.05;;;;;;;;;;5040984;28;20028;-74
2024/01/14 11:00:04;;;;;;;63.47;25.55;;;;;;;;;;5041705;28;20028;-78
2024/01/14 11:02:31;;;;;;;59.78;22.75;;;;;;;;;;5043664;28;20116;-74
2024/01/14 11:04:58;;;;;;;63.78;27.30;;;;;;;;;;5038556;28;20029;-75
2024/01/14 11:07:25;;;;;;;56.25;22.88;;;;;;;;;;5056403;28;20095;-73
2024/01/14 11:09:52;;;;;;;62.78;24.80;;;;;;;;;;5045562;28;20068;-73
2024/01/14 11:12:18;;;;;;;61.30;25.20;;;;;;;;;;5053668;28;20385;-73
2024/01/14 11:15:03;;;;;;;62.42;26.35;;;;;;;;;;5047276;28;20029;-74
2024/01/14 11:17:38;;;;;;;64.65;26.40;;;;;;;;;;5054236;28;20095;-74
2024/01/14 11:20:05;;;;;;;61.28;24.77;;;;;;;;;;5033879;28;20482;-73
2024/01/14 11:22:31;;;;;;;56.30;24.55;;;;;;;;;;5054907;28;20965;-72
2024/01/14 11:24:58;;;;;;;59.08;24.58;;;;;;;;;;5047447;28;20029;-74
2024/01/14 11:27:24;;;;;;;61.55;24.65;;;;;;;;;;5037597;28;20024;-73
2024/01/14 11:29:50;;;;;;;59.45;25.52;;;;;;;;;;5046319;28;20390;-75
2024/01/14 11:32:19;;;;;;;60.42;25.45;;;;;;;;;;5046797;28;20061;-75
2024/01/14 11:34:45;;;;;;;69.35;26.98;;;;;;;;;;5038495;28;20022;-73
2024/01/14 11:37:34;;;;;;;53.40;23.30;;;0.20;99.90;;;;;;5047929;28;20029;-73
2024/01/14 11:40:06;;;;;;;55.05;24.23;;;0.10;99.90;;;;;;5051338;28;20025;-72
2024/01/14 11:42:42;;;;;;;56.92;23.70;;;0.10;99.90;;;;;;5045426;28;20032;-74
2024/01/14 11:45:49;;;;;;;54.47;23.23;;;0.10;99.90;;;;;;5046950;28;20141;-75
2024/01/14 11:48:15;;;;;;;55.35;22.63;;;0.10;99.90;;;;;;5031946;28;20017;-73
2024/01/14 11:50:41;;;;;;;56.13;23.67;;;0.10;99.90;;;;;;5050844;28;20108;-72
2024/01/14 11:53:09;;;;;;;55.45;24.08;;;0.20;99.90;;;;;;5040401;28;20383;-73
2024/01/14 11:55:36;;;;;;;54.90;23.02;;;0.30;99.90;;;;;;5035694;28;20021;-72
2024/01/14 11:58:17;;;;;;;61.75;24.13;;;0.30;99.90;;;;;;5051511;28;20036;-74
2024/01/14 12:00:47;;;;;;;57.35;22.63;;;0.40;99.90;;;;;;5040871;28;20072;-75
2024/01/14 12:03:15;;;;;;;55.60;23.75;;;0.50;99.90;;;;;;5049480;28;20571;-75
2024/01/14 12:05:44;;;;;;;55.17;23.08;;;0.60;99.90;;;;;;5047540;28;20040;-75
2024/01/14 12:08:10;;;;;;;54.13;23.10;;;0.60;99.90;;;;;;5058988;28;20024;-73
2024/01/14 12:10:35;;;;;;;56.13;23.83;;;0.70;99.90;;;;;;5030775;28;20040;-73
2024/01/14 12:13:03;;;;;;;49.60;21.85;;;0.80;99.90;;;;;;5052248;28;20029;-74
2024/01/14 12:15:29;;;;;;;52.47;23.13;;;0.80;99.90;;;;;;5036232;28;20029;-75
2024/01/14 12:17:57;;;;;;;59.30;25.92;;;0.80;99.90;;;;;;5043761;28;20029;-74
2024/01/14 12:20:23;;;;;;;55.50;24.13;;;0.90;99.90;;;;;;5021804;28;20026;-74
2024/01/14 12:23:00;;;;;;;56.97;24.55;;;1.00;99.90;;;;;;5033657;28;20128;-74
2024/01/14 12:25:26;;;;;;;57.80;24.65;;;1.00;99.90;;;;;;5041226;28;20029;-74
2024/01/14 12:27:52;;;;;;;65.65;25.27;;;0.90;99.90;;;;;;5030920;28;20481;-74
2024/01/14 12:30:30;;;;;;;57.35;25.10;;;0.90;99.90;;;;;;5027378;28;20118;-73
2024/01/14 12:32:56;;;;;;;53.72;23.85;;;0.80;99.90;;;;;;5040017;28;20029;-74